createdAt,value
2023-03-03T00:01:55.345Z,102275.25
2023-03-03T00:04:57.032Z,102276.13
2023-03-03T00:07:58.610Z,102284.00
2023-03-03T00:11:00.982Z,102270.88
2023-03-03T00:14:02.587Z,102270.88
2023-03-03T00:17:21.140Z,102271.75
2023-03-03T00:20:35.098Z,102270.00
2023-03-03T00:23:39.238Z,102264.75
2023-03-03T00:26:42.807Z,102268.28
2023-03-03T00:29:53.421Z,102272.63
2023-03-03T00:32:56.110Z,102271.78
2023-03-03T00:36:06.843Z,102270.91
2023-03-03T00:39:30.089Z,102258.59
2023-03-03T00:42:35.610Z,102269.13
2023-03-03T00:45:54.753Z,102263.84
2023-03-03T00:48:56.344Z,102265.59
2023-03-03T00:51:57.930Z,102271.78
2023-03-03T00:54:59.511Z,102270.00
2023-03-03T00:58:01.232Z,102263.91
2023-03-03T01:01:02.775Z,102272.66
2023-03-03T01:04:04.401Z,102275.28
2023-03-03T01:07:05.967Z,102269.16
2023-03-03T01:10:08.241Z,102269.16
2023-03-03T01:13:10.592Z,102261.25
2023-03-03T01:16:12.297Z,102265.59
2023-03-03T01:19:13.845Z,102256.00
2023-03-03T01:22:15.811Z,102252.50
2023-03-03T01:25:17.660Z,102253.41
2023-03-03T01:28:19.321Z,102264.75
2023-03-03T01:31:20.932Z,102258.63
2023-03-03T01:34:22.504Z,102250.75
2023-03-03T01:37:24.319Z,102245.50
2023-03-03T01:40:29.345Z,102256.88
2023-03-03T01:43:32.621Z,102251.63
2023-03-03T01:46:46.605Z,102240.25
2023-03-03T01:49:57.870Z,102236.75
2023-03-03T01:53:03.220Z,102234.16
2023-03-03T01:56:07.943Z,102234.19
2023-03-03T01:59:22.202Z,102231.56
2023-03-03T02:02:25.487Z,102222.81
2023-03-03T02:05:28.012Z,102229.84
2023-03-03T02:08:39.550Z,102218.47
2023-03-03T02:11:44.472Z,102231.63
2023-03-03T02:14:46.237Z,102231.69
2023-03-03T02:17:50.878Z,102229.97
2023-03-03T02:21:04.162Z,102236.09
2023-03-03T02:24:14.528Z,102236.13
2023-03-03T02:27:16.086Z,102236.13
2023-03-03T02:30:24.309Z,102234.38
2023-03-03T02:33:26.299Z,102230.84
2023-03-03T02:36:33.173Z,102229.09
2023-03-03T02:39:34.869Z,102228.25
2023-03-03T02:42:36.828Z,102226.53
2023-03-03T02:45:43.895Z,102231.81
2023-03-03T02:48:45.448Z,102225.69
2023-03-03T02:51:47.043Z,102231.81
2023-03-03T02:54:48.632Z,102227.44
2023-03-03T02:57:50.161Z,102231.81
2023-03-03T03:00:51.789Z,102223.09
2023-03-03T03:03:53.558Z,102229.22
2023-03-03T03:06:56.420Z,102225.72
2023-03-03T03:09:57.959Z,102230.97
2023-03-03T03:12:59.497Z,102216.97
2023-03-03T03:16:01.309Z,102220.47
2023-03-03T03:19:04.143Z,102214.31
2023-03-03T03:22:05.698Z,102215.19
2023-03-03T03:25:07.645Z,102215.16
2023-03-03T03:28:09.241Z,102215.16
2023-03-03T03:31:10.864Z,102223.06
2023-03-03T03:34:12.464Z,102219.53
2023-03-03T03:37:14.413Z,102231.75
2023-03-03T03:40:16.157Z,102227.38
2023-03-03T03:43:17.931Z,102229.13
2023-03-03T03:46:19.577Z,102233.50
2023-03-03T03:49:21.665Z,102230.88
2023-03-03T03:52:23.291Z,102237.00
2023-03-03T03:55:24.893Z,102236.13
2023-03-03T03:58:26.615Z,102244.00
2023-03-03T04:01:28.267Z,102248.38
2023-03-03T04:04:29.879Z,102244.00
2023-03-03T04:07:31.437Z,102248.38
2023-03-03T04:10:32.999Z,102235.25
2023-03-03T04:13:35.527Z,102239.59
2023-03-03T04:16:37.137Z,102229.97
2023-03-03T04:19:38.672Z,102226.44
2023-03-03T04:22:40.305Z,102230.88
2023-03-03T04:25:41.846Z,102232.63
2023-03-03T04:28:43.388Z,102222.97
2023-03-03T04:31:44.929Z,102222.97
2023-03-03T04:34:52.957Z,102220.38
2023-03-03T04:37:57.376Z,102219.47
2023-03-03T04:40:58.997Z,102212.47
2023-03-03T04:44:00.527Z,102216.84
2023-03-03T04:47:02.100Z,102207.19
2023-03-03T04:50:04.421Z,102212.41
2023-03-03T04:53:05.978Z,102210.66
2023-03-03T04:56:08.049Z,102201.91
2023-03-03T04:59:09.690Z,102199.28
2023-03-03T05:02:13.047Z,102201.91
2023-03-03T05:05:14.759Z,102195.75
2023-03-03T05:08:16.746Z,102194.88
2023-03-03T05:11:18.317Z,102189.63
2023-03-03T05:14:19.882Z,102189.59
2023-03-03T05:17:21.412Z,102194.88
2023-03-03T05:20:23.903Z,102191.34
2023-03-03T05:23:25.896Z,102198.34
2023-03-03T05:26:27.411Z,102195.72
2023-03-03T05:29:31.533Z,102200.97
2023-03-03T05:32:33.213Z,102207.94
2023-03-03T05:35:35.173Z,102207.06
2023-03-03T05:38:36.866Z,102209.72
2023-03-03T05:41:38.864Z,102199.19
2023-03-03T05:44:40.601Z,102193.91
2023-03-03T05:47:42.406Z,102203.53
2023-03-03T05:50:43.979Z,102214.06
2023-03-03T05:53:45.596Z,102222.81
2023-03-03T05:56:47.206Z,102222.78
2023-03-03T05:59:48.949Z,102221.03
2023-03-03T06:02:50.490Z,102231.56
2023-03-03T06:05:52.117Z,102234.16
2023-03-03T06:08:56.843Z,102233.28
2023-03-03T06:11:59.010Z,102236.75
2023-03-03T06:15:00.550Z,102239.38
2023-03-03T06:18:02.324Z,102238.50
2023-03-03T06:21:04.091Z,102247.25
2023-03-03T06:24:06.288Z,102250.75
2023-03-03T06:27:07.883Z,102248.13
2023-03-03T06:30:10.135Z,102247.22
2023-03-03T06:33:11.846Z,102242.88
2023-03-03T06:36:13.390Z,102248.97
2023-03-03T06:39:14.981Z,102248.97
2023-03-03T06:42:16.491Z,102249.81
2023-03-03T06:45:18.110Z,102257.66
2023-03-03T06:48:19.664Z,102253.25
2023-03-03T06:51:33.603Z,102255.88
2023-03-03T06:54:35.273Z,102257.59
2023-03-03T06:57:37.553Z,102252.31
2023-03-03T07:00:40.822Z,102261.00
2023-03-03T07:03:42.361Z,102258.31
2023-03-03T07:06:43.922Z,102267.00
2023-03-03T07:09:48.012Z,102266.06
2023-03-03T07:12:49.942Z,102268.56
2023-03-03T07:15:54.312Z,102269.28
2023-03-03T07:19:03.603Z,102274.38
2023-03-03T07:22:14.148Z,102276.88
2023-03-03T07:25:22.000Z,102279.41
2023-03-03T07:28:29.225Z,102278.50
2023-03-03T07:31:41.618Z,102279.38
2023-03-03T07:34:52.265Z,102285.69
2023-03-03T07:37:54.031Z,102284.50
2023-03-03T07:40:58.290Z,102285.19
2023-03-03T07:44:06.601Z,102283.22
2023-03-03T07:47:30.511Z,102282.28
2023-03-03T07:50:32.485Z,102280.63
2023-03-03T07:53:36.462Z,102278.09
2023-03-03T07:56:38.102Z,102280.88
2023-03-03T07:59:48.839Z,102277.53
2023-03-03T08:02:56.397Z,102273.22
2023-03-03T08:05:57.963Z,102268.94
2023-03-03T08:09:41.699Z,102283.13
2023-03-03T08:12:45.153Z,102280.66
2023-03-03T08:15:50.689Z,102284.28
2023-03-03T08:18:53.926Z,102284.34
2023-03-03T08:22:12.282Z,102284.47
2023-03-03T08:25:13.876Z,102283.66
2023-03-03T08:28:16.306Z,102281.97
2023-03-03T08:31:30.781Z,102284.66
2023-03-03T08:34:36.107Z,102282.09
2023-03-03T08:37:37.876Z,102280.34
2023-03-03T08:40:39.586Z,102282.06
2023-03-03T08:43:41.444Z,102284.66
2023-03-03T08:46:44.225Z,102288.16
2023-03-03T08:49:45.837Z,102276.78
2023-03-03T08:52:48.437Z,102286.38
2023-03-03T08:55:51.360Z,102283.75
2023-03-03T08:59:02.092Z,102286.34
2023-03-03T09:02:05.806Z,102297.78
2023-03-03T09:05:08.365Z,102288.97
2023-03-03T09:08:10.842Z,102285.47
2023-03-03T09:11:13.478Z,102295.06
2023-03-03T09:14:18.948Z,102289.78
2023-03-03T09:17:26.084Z,102302.97
2023-03-03T09:20:33.729Z,102299.38
2023-03-03T09:23:56.216Z,102303.72
2023-03-03T09:26:59.307Z,102302.81
2023-03-03T09:30:30.887Z,102298.44
2023-03-03T09:33:44.612Z,102303.66
2023-03-03T09:36:46.237Z,102300.97
2023-03-03T09:39:53.510Z,102298.25
2023-03-03T09:43:24.055Z,102294.66
2023-03-03T09:46:28.390Z,102306.03
2023-03-03T09:49:39.455Z,102294.59
2023-03-03T09:53:01.746Z,102300.56
2023-03-03T09:56:12.498Z,102298.59
2023-03-03T09:59:28.025Z,102299.22
2023-03-03T10:02:32.374Z,102297.88
2023-03-03T10:05:52.002Z,102295.97
2023-03-03T10:08:56.593Z,102300.75
2023-03-03T10:12:13.623Z,102301.25
2023-03-03T10:15:15.087Z,102301.91
2023-03-03T10:18:33.896Z,102305.50
2023-03-03T10:21:51.124Z,102301.06
2023-03-03T10:25:20.511Z,102297.00
2023-03-03T10:28:40.461Z,102305.16
2023-03-03T10:31:44.922Z,102305.34
2023-03-03T10:35:14.197Z,102306.28
2023-03-03T10:38:46.656Z,102305.66
2023-03-03T10:42:22.331Z,102307.56
2023-03-03T10:45:53.253Z,102298.97
2023-03-03T10:49:14.732Z,102295.56
2023-03-03T10:52:16.287Z,102302.69
2023-03-03T10:55:22.891Z,102298.28
2023-03-03T10:58:56.545Z,102299.19
2023-03-03T11:02:02.172Z,102300.13
2023-03-03T11:05:16.994Z,102298.34
2023-03-03T11:08:34.061Z,102306.34
2023-03-03T11:11:57.600Z,102297.59
2023-03-03T11:14:59.390Z,102290.56
2023-03-03T11:18:37.157Z,102294.06
2023-03-03T11:21:51.423Z,102286.19
2023-03-03T11:25:05.344Z,102287.06
2023-03-03T11:28:13.014Z,102283.44
2023-03-03T11:31:33.626Z,102275.44
2023-03-03T11:35:08.028Z,102287.72
2023-03-03T11:38:09.542Z,102278.84
2023-03-03T11:41:35.612Z,102268.25
2023-03-03T11:45:17.912Z,102269.13
2023-03-03T11:48:25.479Z,102263.72
2023-03-03T11:51:43.140Z,102264.59
2023-03-03T11:54:54.441Z,102262.75
2023-03-03T11:58:08.128Z,102256.59
2023-03-03T12:01:30.923Z,102258.41
2023-03-03T12:04:39.398Z,102258.44
2023-03-03T12:07:50.949Z,102251.44
2023-03-03T12:11:04.376Z,102252.25
2023-03-03T12:14:13.472Z,102253.00
2023-03-03T12:17:33.163Z,102245.88
2023-03-03T12:21:16.370Z,102247.56
2023-03-03T12:24:55.584Z,102242.28
2023-03-03T12:28:18.290Z,102245.00
2023-03-03T12:32:00.017Z,102235.31
2023-03-03T12:35:15.821Z,102234.47
2023-03-03T12:38:44.587Z,102234.47
2023-03-03T12:41:52.526Z,102232.72
2023-03-03T12:45:10.617Z,102225.66
2023-03-03T12:48:30.114Z,102220.50
2023-03-03T12:51:37.578Z,102228.50
2023-03-03T12:55:12.569Z,102210.09
2023-03-03T12:58:20.494Z,102205.78
2023-03-03T13:02:01.013Z,102208.50
2023-03-03T13:05:07.981Z,102209.47
2023-03-03T13:08:18.642Z,102205.03
2023-03-03T13:11:42.412Z,102198.88
2023-03-03T13:14:50.220Z,102202.34
2023-03-03T13:18:29.738Z,102196.09
2023-03-03T13:22:01.519Z,102190.03
2023-03-03T13:25:40.141Z,102196.06
2023-03-03T13:28:59.936Z,102185.97
2023-03-03T13:32:22.679Z,102188.88
2023-03-03T13:35:46.025Z,102185.59
2023-03-03T13:38:56.662Z,102186.72
2023-03-03T13:42:26.540Z,102181.78
2023-03-03T13:45:35.304Z,102173.22
2023-03-03T13:49:05.930Z,102176.03
2023-03-03T13:52:15.173Z,102169.22
2023-03-03T13:55:29.439Z,102164.97
2023-03-03T13:58:38.495Z,102164.16
2023-03-03T14:02:07.672Z,102153.66
2023-03-03T14:05:09.181Z,102158.13
2023-03-03T14:08:48.060Z,102148.44
2023-03-03T14:11:57.755Z,102158.13
2023-03-03T14:15:04.223Z,102150.31
2023-03-03T14:18:34.504Z,102143.34
2023-03-03T14:21:43.260Z,102139.84
2023-03-03T14:25:07.690Z,102134.47
2023-03-03T14:28:14.124Z,102127.41
2023-03-03T14:31:21.752Z,102123.81
2023-03-03T14:34:23.314Z,102121.16
2023-03-03T14:37:24.861Z,102119.34
2023-03-03T14:40:35.611Z,102121.03
2023-03-03T14:43:40.833Z,102109.56
2023-03-03T14:46:45.013Z,102114.88
2023-03-03T14:49:46.878Z,102117.50
2023-03-03T14:53:08.623Z,102102.53
2023-03-03T14:56:24.226Z,102108.75
2023-03-03T14:59:27.074Z,102103.47
2023-03-03T15:02:38.836Z,102102.59
2023-03-03T15:05:50.000Z,102105.25
2023-03-03T15:08:51.569Z,102095.53
2023-03-03T15:11:54.641Z,102097.38
2023-03-03T15:15:20.809Z,102094.72
2023-03-03T15:18:22.587Z,102088.53
2023-03-03T15:21:32.238Z,102085.03
2023-03-03T15:25:07.911Z,102081.50
2023-03-03T15:28:33.013Z,102078.84
2023-03-03T15:31:35.219Z,102079.75
2023-03-03T15:34:36.816Z,102082.41
2023-03-03T15:37:55.860Z,102074.44
2023-03-03T15:41:00.301Z,102069.09
2023-03-03T15:44:14.870Z,102068.22
2023-03-03T15:47:24.265Z,102057.69
2023-03-03T15:50:35.393Z,102057.75
2023-03-03T15:53:52.899Z,102057.75
2023-03-03T15:56:58.933Z,102059.56
2023-03-03T16:00:03.652Z,102049.09
2023-03-03T16:03:20.830Z,102050.84
2023-03-03T16:06:26.611Z,102049.94
2023-03-03T16:09:56.556Z,102055.22
2023-03-03T16:13:06.909Z,102050.03
2023-03-03T16:16:17.441Z,102047.47
2023-03-03T16:19:37.664Z,102051.03
2023-03-03T16:22:45.185Z,102044.03
2023-03-03T16:26:05.228Z,102047.63
2023-03-03T16:29:18.522Z,102055.56
2023-03-03T16:33:04.880Z,102056.56
2023-03-03T16:36:18.517Z,102057.59
2023-03-03T16:39:44.413Z,102055.09
2023-03-03T16:42:53.177Z,102066.56
2023-03-03T16:46:06.545Z,102063.97
2023-03-03T16:49:36.063Z,102070.28
2023-03-03T16:53:14.872Z,102072.13
2023-03-03T16:56:38.852Z,102067.84
2023-03-03T16:59:56.259Z,102075.00
2023-03-03T17:03:09.585Z,102061.94
2023-03-03T17:06:29.504Z,102069.94
2023-03-03T17:09:34.034Z,102063.41
2023-03-03T17:13:01.875Z,102070.50
2023-03-03T17:16:09.458Z,102075.88
2023-03-03T17:20:00.786Z,102063.63
2023-03-03T17:23:26.425Z,102062.00
2023-03-03T17:26:56.765Z,102071.78
2023-03-03T17:30:04.245Z,102069.19
2023-03-03T17:33:24.062Z,102075.41
2023-03-03T17:36:25.614Z,102076.34
2023-03-03T17:39:38.671Z,102083.41
2023-03-03T17:43:17.578Z,102078.13
2023-03-03T17:46:28.068Z,102076.38
2023-03-03T17:49:54.757Z,102074.66
2023-03-03T17:53:14.274Z,102079.94
2023-03-03T17:56:28.172Z,102081.72
2023-03-03T18:00:12.106Z,102080.88
2023-03-03T18:04:02.031Z,102082.72
2023-03-03T18:07:06.510Z,102084.53
2023-03-03T18:10:33.131Z,102078.31
2023-03-03T18:13:51.281Z,102087.13
2023-03-03T18:16:55.874Z,102095.94
2023-03-03T18:20:00.683Z,102088.00
2023-03-03T18:23:20.509Z,102086.28
2023-03-03T18:26:42.064Z,102091.56
2023-03-03T18:30:24.997Z,102087.13
2023-03-03T18:33:35.887Z,102083.41
2023-03-03T18:36:51.817Z,102080.63
2023-03-03T18:40:02.197Z,102091.00
2023-03-03T18:43:39.912Z,102082.94
2023-03-03T18:46:46.875Z,102083.69
2023-03-03T18:49:53.014Z,102082.88
2023-03-03T18:53:19.325Z,102081.13
2023-03-03T18:57:05.095Z,102086.34
2023-03-03T19:00:27.362Z,102084.59
2023-03-03T19:03:28.931Z,102077.44
2023-03-03T19:06:36.420Z,102075.69
2023-03-03T19:10:02.880Z,102083.63
2023-03-03T19:13:27.452Z,102083.63
2023-03-03T19:16:30.845Z,102079.97
2023-03-03T19:19:34.938Z,102079.91
2023-03-03T19:22:52.039Z,102078.19
2023-03-03T19:26:24.775Z,102078.16
2023-03-03T19:29:32.340Z,102077.31
2023-03-03T19:33:12.560Z,102080.03
2023-03-03T19:36:36.013Z,102073.88
2023-03-03T19:39:55.310Z,102077.44
2023-03-03T19:43:27.212Z,102083.69
2023-03-03T19:46:56.308Z,102085.41
2023-03-03T19:50:05.328Z,102077.53
2023-03-03T19:53:30.908Z,102082.75
2023-03-03T19:56:38.325Z,102082.75
2023-03-03T19:59:53.476Z,102086.25
2023-03-03T20:03:03.965Z,102086.31
2023-03-03T20:06:08.448Z,102075.78
2023-03-03T20:09:29.791Z,102075.84
2023-03-03T20:12:53.149Z,102076.78
2023-03-03T20:16:16.102Z,102082.00
2023-03-03T20:19:41.835Z,102081.19
2023-03-03T20:22:58.418Z,102086.47
2023-03-03T20:26:15.477Z,102086.53
2023-03-03T20:29:37.336Z,102085.59
2023-03-03T20:33:06.906Z,102097.97
2023-03-03T20:36:29.924Z,102094.47
2023-03-03T20:40:02.697Z,102092.78
2023-03-03T20:43:34.034Z,102090.25
2023-03-03T20:46:47.723Z,102089.50
2023-03-03T20:50:12.113Z,102093.06
2023-03-03T20:53:34.730Z,102094.84
2023-03-03T20:56:44.258Z,102091.38
2023-03-03T21:00:00.563Z,102085.19
2023-03-03T21:03:08.010Z,102087.81
2023-03-03T21:06:21.038Z,102083.41
2023-03-03T21:09:29.346Z,102081.66
2023-03-03T21:12:31.838Z,102085.22
2023-03-03T21:15:35.674Z,102079.91
2023-03-03T21:18:37.256Z,102079.00
2023-03-03T21:21:45.293Z,102083.41
2023-03-03T21:24:50.669Z,102078.13
2023-03-03T21:27:52.219Z,102085.22
2023-03-03T21:31:10.183Z,102086.22
2023-03-03T21:34:27.059Z,102083.66
2023-03-03T21:37:50.304Z,102081.09
2023-03-03T21:41:00.384Z,102089.00
2023-03-03T21:44:01.948Z,102083.78
2023-03-03T21:47:05.159Z,102080.25
2023-03-03T21:50:07.559Z,102078.50
2023-03-03T21:53:09.120Z,102069.72
2023-03-03T21:56:13.870Z,102077.69
2023-03-03T21:59:16.214Z,102078.56
2023-03-03T22:02:17.798Z,102067.16
2023-03-03T22:05:19.364Z,102075.16
2023-03-03T22:08:22.656Z,102069.91
2023-03-03T22:11:24.433Z,102069.91
2023-03-03T22:14:26.118Z,102067.25
2023-03-03T22:17:28.173Z,102066.50
2023-03-03T22:20:29.998Z,102058.59
2023-03-03T22:23:32.767Z,102060.34
2023-03-03T22:26:35.188Z,102063.03
2023-03-03T22:29:36.729Z,102057.75
2023-03-03T22:32:38.389Z,102061.22
2023-03-03T22:35:40.024Z,102061.22
2023-03-03T22:38:41.954Z,102057.75
2023-03-03T22:41:43.525Z,102042.78
2023-03-03T22:44:46.088Z,102044.56
2023-03-03T22:47:47.703Z,102041.91
2023-03-03T22:50:49.597Z,102056.88
2023-03-03T22:53:51.178Z,102041.09
2023-03-03T22:56:52.686Z,102039.34
2023-03-03T22:59:54.270Z,102041.03
2023-03-03T23:02:55.915Z,102045.44
2023-03-03T23:05:57.455Z,102032.28
2023-03-03T23:08:59.021Z,102050.78
2023-03-03T23:12:00.581Z,102045.50
2023-03-03T23:15:02.232Z,102038.41
2023-03-03T23:18:04.104Z,102030.50
2023-03-03T23:21:05.737Z,102031.38
2023-03-03T23:24:07.859Z,102030.50
2023-03-03T23:27:10.981Z,102035.78
2023-03-03T23:30:15.322Z,102027.91
2023-03-03T23:33:17.103Z,102036.72
2023-03-03T23:36:18.651Z,102040.28
2023-03-03T23:39:20.236Z,102034.06
2023-03-03T23:42:21.821Z,102022.63
2023-03-03T23:45:23.515Z,102025.31
2023-03-03T23:48:25.275Z,102031.44
2023-03-03T23:51:26.801Z,102031.47
2023-03-03T23:54:28.585Z,102029.78
2023-03-03T23:57:30.167Z,102034.16
